createdAt,value
2023-04-02T00:01:22.812Z,11.44
2023-04-02T00:03:53.996Z,11.45
2023-04-02T00:06:33.231Z,11.48
2023-04-02T00:09:33.111Z,11.52
2023-04-02T00:12:15.340Z,11.51
2023-04-02T00:14:47.320Z,11.43
2023-04-02T00:17:13.946Z,11.46
2023-04-02T00:20:05.345Z,11.41
2023-04-02T00:22:33.643Z,11.41
2023-04-02T00:25:02.580Z,11.42
2023-04-02T00:27:31.274Z,11.33
2023-04-02T00:29:59.134Z,11.37
2023-04-02T00:32:32.709Z,11.39
2023-04-02T00:35:00.119Z,11.45
2023-04-02T00:37:39.083Z,11.22
2023-04-02T00:40:16.595Z,11.29
2023-04-02T00:42:44.768Z,11.38
2023-04-02T00:45:24.682Z,11.32
2023-04-02T00:47:52.364Z,11.28
2023-04-02T00:50:26.388Z,11.24
2023-04-02T00:52:54.526Z,11.29
2023-04-02T00:55:40.313Z,11.27
2023-04-02T00:58:29.920Z,11.22
2023-04-02T01:00:56.917Z,11.16
2023-04-02T01:03:23.613Z,11.09
2023-04-02T01:05:56.153Z,11.16
2023-04-02T01:08:40.998Z,11.21
2023-04-02T01:11:44.643Z,11.23
2023-04-02T01:14:29.310Z,11.11
2023-04-02T01:17:03.886Z,11.23
2023-04-02T01:19:36.011Z,11.23
2023-04-02T01:22:22.052Z,11.22
2023-04-02T01:24:49.137Z,11.07
2023-04-02T01:27:26.326Z,11.06
2023-04-02T01:29:56.595Z,11.11
2023-04-02T01:32:25.817Z,11.01
2023-04-02T01:34:52.946Z,11.07
2023-04-02T01:37:49.443Z,11.17
2023-04-02T01:40:44.391Z,11.14
2023-04-02T01:43:29.072Z,11.12
2023-04-02T01:45:58.134Z,11.30
2023-04-02T01:48:30.261Z,11.22
2023-04-02T01:50:59.275Z,11.19
2023-04-02T01:53:28.215Z,11.23
2023-04-02T01:55:57.536Z,11.37
2023-04-02T01:58:27.553Z,11.41
2023-04-02T02:01:22.885Z,11.33
2023-04-02T02:03:50.452Z,11.20
2023-04-02T02:06:19.369Z,11.07
2023-04-02T02:08:56.518Z,11.12
2023-04-02T02:11:28.266Z,11.09
2023-04-02T02:14:00.523Z,11.09
2023-04-02T02:16:29.343Z,11.14
2023-04-02T02:19:04.778Z,11.06
2023-04-02T02:21:39.814Z,11.13
2023-04-02T02:24:17.054Z,11.11
2023-04-02T02:26:46.983Z,11.06
2023-04-02T02:29:18.466Z,11.06
2023-04-02T02:31:52.341Z,11.03
2023-04-02T02:34:24.984Z,11.05
2023-04-02T02:36:56.590Z,11.02
2023-04-02T02:39:29.590Z,11.08
2023-04-02T02:42:03.367Z,11.08
2023-04-02T02:44:35.017Z,11.07
2023-04-02T02:47:04.979Z,11.02
2023-04-02T02:49:36.228Z,10.91
2023-04-02T02:52:08.275Z,10.91
2023-04-02T02:54:38.142Z,10.80
2023-04-02T02:57:10.224Z,10.70
2023-04-02T02:59:37.995Z,10.70
2023-04-02T03:02:07.048Z,10.70
2023-04-02T03:04:37.061Z,10.68
2023-04-02T03:07:06.105Z,10.65
2023-04-02T03:10:19.671Z,10.75
2023-04-02T03:13:02.557Z,10.52
2023-04-02T03:15:32.103Z,10.46
2023-04-02T03:18:14.294Z,10.44
2023-04-02T03:20:52.402Z,10.42
2023-04-02T03:23:24.827Z,10.38
2023-04-02T03:26:01.677Z,10.33
2023-04-02T03:28:32.518Z,10.31
2023-04-02T03:31:05.881Z,10.35
2023-04-02T03:33:39.954Z,10.31
2023-04-02T03:36:29.766Z,10.36
2023-04-02T03:39:05.841Z,10.27
2023-04-02T03:41:41.539Z,10.20
2023-04-02T03:44:36.528Z,10.17
2023-04-02T03:47:12.960Z,10.16
2023-04-02T03:49:47.964Z,10.14
2023-04-02T03:52:22.777Z,10.15
2023-04-02T03:54:53.847Z,10.04
2023-04-02T03:57:37.532Z,10.07
2023-04-02T04:00:39.140Z,9.96
2023-04-02T04:03:13.985Z,9.77
2023-04-02T04:05:58.868Z,9.96
2023-04-02T04:08:32.823Z,10.03
2023-04-02T04:11:07.446Z,10.09
2023-04-02T04:13:46.701Z,10.18
2023-04-02T04:16:20.140Z,10.17
2023-04-02T04:19:04.989Z,10.19
2023-04-02T04:21:37.041Z,10.19
2023-04-02T04:24:39.142Z,10.15
2023-04-02T04:27:42.768Z,10.16
2023-04-02T04:30:30.345Z,10.22
2023-04-02T04:33:03.850Z,10.24
2023-04-02T04:35:35.070Z,10.13
2023-04-02T04:38:15.568Z,10.14
2023-04-02T04:40:50.363Z,10.12
2023-04-02T04:43:25.775Z,10.11
2023-04-02T04:45:58.328Z,10.16
2023-04-02T04:48:36.525Z,10.08
2023-04-02T04:51:16.682Z,10.03
2023-04-02T04:53:49.031Z,10.02
2023-04-02T04:56:19.828Z,10.09
2023-04-02T04:59:04.148Z,10.17
2023-04-02T05:02:23.110Z,10.09
2023-04-02T05:04:52.001Z,10.15
2023-04-02T05:07:18.376Z,10.20
2023-04-02T05:10:19.995Z,10.19
2023-04-02T05:13:01.697Z,10.17
2023-04-02T05:15:54.713Z,10.09
2023-04-02T05:18:32.965Z,10.21
2023-04-02T05:21:08.447Z,10.19
2023-04-02T05:23:51.125Z,10.21
2023-04-02T05:26:43.111Z,10.14
2023-04-02T05:29:14.714Z,10.17
2023-04-02T05:31:49.630Z,10.14
2023-04-02T05:34:23.776Z,10.19
2023-04-02T05:36:50.421Z,10.19
2023-04-02T05:39:22.362Z,10.21
2023-04-02T05:41:57.007Z,10.16
2023-04-02T05:44:31.293Z,10.19
2023-04-02T05:47:21.047Z,10.18
2023-04-02T05:49:53.337Z,10.21
2023-04-02T05:52:29.820Z,10.27
2023-04-02T05:55:11.360Z,10.32
2023-04-02T05:58:01.267Z,10.35
2023-04-02T06:00:36.418Z,10.36
2023-04-02T06:03:12.662Z,10.40
2023-04-02T06:05:43.668Z,10.42
2023-04-02T06:08:22.731Z,10.50
2023-04-02T06:10:56.462Z,10.57
2023-04-02T06:13:23.248Z,10.59
2023-04-02T06:15:49.897Z,10.57
2023-04-02T06:18:23.461Z,10.56
2023-04-02T06:20:50.488Z,10.67
2023-04-02T06:23:23.400Z,10.73
2023-04-02T06:25:57.456Z,10.77
2023-04-02T06:28:40.726Z,10.87
2023-04-02T06:31:12.062Z,10.85
2023-04-02T06:33:38.558Z,10.85
2023-04-02T06:36:07.778Z,10.91
2023-04-02T06:38:36.175Z,10.95
2023-04-02T06:41:15.423Z,11.08
2023-04-02T06:43:51.031Z,11.03
2023-04-02T06:46:26.835Z,11.08
2023-04-02T06:49:00.561Z,11.20
2023-04-02T06:51:28.760Z,11.14
2023-04-02T06:53:56.181Z,11.11
2023-04-02T06:56:44.606Z,11.08
2023-04-02T06:59:12.710Z,11.26
2023-04-02T07:01:53.548Z,11.22
2023-04-02T07:04:21.622Z,11.23
2023-04-02T07:06:48.102Z,11.31
2023-04-02T07:09:14.594Z,11.34
2023-04-02T07:11:41.205Z,11.34
2023-04-02T07:14:12.995Z,11.34
2023-04-02T07:16:40.995Z,11.37
2023-04-02T07:19:09.170Z,11.42
2023-04-02T07:21:35.597Z,11.46
2023-04-02T07:24:02.023Z,11.67
2023-04-02T07:26:28.577Z,11.85
2023-04-02T07:28:56.406Z,11.71
2023-04-02T07:31:28.021Z,11.75
2023-04-02T07:34:00.659Z,11.61
2023-04-02T07:36:29.513Z,11.54
2023-04-02T07:38:56.086Z,11.74
2023-04-02T07:41:23.262Z,11.60
2023-04-02T07:43:50.001Z,11.66
2023-04-02T07:46:17.996Z,11.47
2023-04-02T07:48:44.986Z,11.75
2023-04-02T07:51:23.337Z,11.85
2023-04-02T07:53:50.984Z,12.15
2023-04-02T07:56:19.608Z,11.91
2023-04-02T07:58:46.208Z,12.08
2023-04-02T08:01:18.858Z,11.84
2023-04-02T08:03:46.302Z,12.38
2023-04-02T08:06:13.051Z,12.20
2023-04-02T08:08:39.658Z,12.27
2023-04-02T08:11:06.653Z,12.48
2023-04-02T08:13:33.139Z,11.97
2023-04-02T08:16:00.602Z,11.83
2023-04-02T08:18:27.283Z,11.73
2023-04-02T08:20:53.683Z,11.37
2023-04-02T08:23:21.592Z,11.31
2023-04-02T08:25:48.763Z,10.85
2023-04-02T08:28:16.014Z,10.39
2023-04-02T08:30:42.945Z,9.59
2023-04-02T08:33:09.517Z,9.66
2023-04-02T08:35:36.602Z,9.48
2023-04-02T08:38:03.237Z,9.33
2023-04-02T08:40:41.596Z,9.07
2023-04-02T08:43:28.792Z,9.16
2023-04-02T08:46:27.972Z,9.19
2023-04-02T08:49:00.576Z,9.08
2023-04-02T08:51:31.380Z,9.16
2023-04-02T08:54:18.600Z,9.06
2023-04-02T08:56:56.866Z,9.02
2023-04-02T08:59:32.619Z,8.92
2023-04-02T09:02:28.795Z,9.06
2023-04-02T09:05:02.283Z,9.02
2023-04-02T09:07:29.215Z,9.39
2023-04-02T09:09:57.936Z,9.25
2023-04-02T09:12:30.922Z,9.40
2023-04-02T09:14:57.629Z,9.40
2023-04-02T09:17:26.487Z,9.38
2023-04-02T09:20:19.160Z,9.15
2023-04-02T09:22:48.528Z,9.14
2023-04-02T09:25:26.867Z,9.24
2023-04-02T09:27:55.649Z,9.52
2023-04-02T09:30:47.221Z,9.49
2023-04-02T09:33:13.694Z,9.26
2023-04-02T09:35:48.991Z,9.36
2023-04-02T09:38:18.470Z,9.28
2023-04-02T09:40:58.689Z,9.42
2023-04-02T09:43:25.017Z,9.51
2023-04-02T09:46:04.919Z,9.45
2023-04-02T09:48:35.404Z,9.74
2023-04-02T09:51:12.710Z,9.44
2023-04-02T09:53:49.197Z,9.44
2023-04-02T09:56:24.381Z,9.69
2023-04-02T09:59:03.217Z,9.62
2023-04-02T10:01:38.779Z,9.52
2023-04-02T10:04:26.592Z,9.50
2023-04-02T10:07:00.466Z,9.73
2023-04-02T10:09:32.576Z,9.56
2023-04-02T10:12:03.268Z,9.67
2023-04-02T10:14:40.241Z,9.43
2023-04-02T10:17:19.913Z,9.48
2023-04-02T10:19:51.413Z,9.53
2023-04-02T10:22:20.425Z,9.15
2023-04-02T10:24:47.335Z,9.28
2023-04-02T10:27:31.310Z,9.17
2023-04-02T10:30:37.243Z,9.17
2023-04-02T10:33:20.105Z,9.02
2023-04-02T10:36:04.774Z,8.90
2023-04-02T10:38:47.899Z,8.84
2023-04-02T10:41:32.319Z,9.01
2023-04-02T10:44:09.523Z,9.23
2023-04-02T10:47:07.310Z,9.23
2023-04-02T10:50:04.968Z,9.53
2023-04-02T10:52:39.952Z,9.16
2023-04-02T10:55:15.522Z,9.15
2023-04-02T10:57:43.943Z,9.12
2023-04-02T11:00:16.667Z,9.24
2023-04-02T11:02:49.349Z,9.11
2023-04-02T11:05:43.243Z,9.12
2023-04-02T11:08:18.652Z,9.25
2023-04-02T11:10:50.819Z,9.15
2023-04-02T11:13:28.239Z,9.28
2023-04-02T11:15:54.836Z,9.27
2023-04-02T11:18:35.646Z,9.45
2023-04-02T11:21:04.425Z,9.47
2023-04-02T11:23:53.764Z,9.60
2023-04-02T11:26:38.214Z,9.61
2023-04-02T11:29:38.773Z,9.10
2023-04-02T11:32:20.534Z,9.41
2023-04-02T11:34:49.529Z,9.23
2023-04-02T11:37:38.385Z,9.06
2023-04-02T11:40:44.696Z,9.25
2023-04-02T11:43:32.921Z,9.51
2023-04-02T11:46:00.701Z,9.00
2023-04-02T11:48:31.032Z,9.32
2023-04-02T11:50:58.183Z,9.17
2023-04-02T11:53:32.986Z,9.28
2023-04-02T11:56:29.419Z,9.22
2023-04-02T11:59:05.280Z,9.30
2023-04-02T12:02:01.986Z,9.41
2023-04-02T12:04:46.590Z,9.45
2023-04-02T12:07:36.897Z,9.35
2023-04-02T12:10:11.846Z,9.69
2023-04-02T12:12:39.353Z,9.32
2023-04-02T12:15:43.514Z,9.35
2023-04-02T12:18:25.357Z,9.63
2023-04-02T12:20:55.841Z,9.59
2023-04-02T12:23:33.710Z,9.66
2023-04-02T12:26:08.872Z,9.26
2023-04-02T12:28:37.981Z,9.28
2023-04-02T12:31:19.146Z,9.10
2023-04-02T12:33:46.282Z,9.16
2023-04-02T12:36:14.364Z,9.30
2023-04-02T12:38:46.905Z,9.15
2023-04-02T12:41:24.507Z,9.26
2023-04-02T12:44:01.882Z,9.11
2023-04-02T12:46:31.099Z,9.06
2023-04-02T12:49:06.868Z,8.97
2023-04-02T12:51:37.882Z,9.06
2023-04-02T12:54:05.354Z,9.18
2023-04-02T12:56:31.856Z,9.10
2023-04-02T12:59:00.692Z,8.89
2023-04-02T13:01:31.766Z,9.02
2023-04-02T13:04:13.565Z,9.05
2023-04-02T13:06:47.276Z,9.01
2023-04-02T13:09:34.218Z,9.06
2023-04-02T13:12:01.712Z,8.90
2023-04-02T13:14:28.432Z,8.93
2023-04-02T13:16:56.030Z,9.06
2023-04-02T13:19:31.496Z,8.95
2023-04-02T13:22:00.805Z,8.70
2023-04-02T13:24:35.155Z,8.61
2023-04-02T13:27:03.473Z,9.02
2023-04-02T13:29:30.996Z,8.90
2023-04-02T13:32:06.507Z,8.84
2023-04-02T13:34:33.132Z,8.76
2023-04-02T13:36:59.891Z,8.73
2023-04-02T13:39:27.150Z,8.86
2023-04-02T13:42:02.794Z,8.99
2023-04-02T13:44:34.596Z,8.87
2023-04-02T13:47:01.400Z,9.14
2023-04-02T13:49:28.131Z,8.80
2023-04-02T13:51:58.744Z,8.63
2023-04-02T13:54:56.144Z,8.94
2023-04-02T13:57:22.623Z,8.54
2023-04-02T13:59:49.099Z,8.69
2023-04-02T14:02:24.539Z,8.95
2023-04-02T14:05:03.798Z,8.82
2023-04-02T14:07:36.914Z,8.82
2023-04-02T14:10:22.987Z,8.67
2023-04-02T14:13:18.547Z,8.93
2023-04-02T14:15:57.052Z,8.88
2023-04-02T14:18:33.017Z,8.72
2023-04-02T14:21:29.042Z,8.81
2023-04-02T14:24:07.322Z,8.77
2023-04-02T14:26:53.196Z,8.59
2023-04-02T14:29:31.494Z,8.59
2023-04-02T14:32:08.731Z,8.70
2023-04-02T14:34:56.451Z,8.75
2023-04-02T14:37:39.815Z,9.05
2023-04-02T14:40:51.898Z,8.84
2023-04-02T14:43:27.487Z,8.79
2023-04-02T14:46:04.362Z,8.75
2023-04-02T14:48:54.188Z,8.78
2023-04-02T14:51:29.125Z,8.71
2023-04-02T14:53:59.349Z,8.91
2023-04-02T14:56:26.521Z,8.81
2023-04-02T14:59:21.141Z,8.82
2023-04-02T15:01:50.597Z,8.86
2023-04-02T15:04:22.825Z,8.53
2023-04-02T15:06:56.643Z,8.37
2023-04-02T15:09:35.611Z,8.39
2023-04-02T15:12:10.746Z,8.40
2023-04-02T15:14:47.608Z,8.58
2023-04-02T15:17:14.088Z,8.35
2023-04-02T15:19:40.523Z,8.45
2023-04-02T15:22:18.978Z,8.27
2023-04-02T15:24:45.323Z,8.58
2023-04-02T15:27:24.437Z,8.43
2023-04-02T15:29:56.230Z,8.63
2023-04-02T15:32:38.327Z,8.32
2023-04-02T15:35:29.375Z,8.15
2023-04-02T15:38:11.068Z,8.36
2023-04-02T15:40:43.526Z,8.07
2023-04-02T15:43:29.489Z,8.06
2023-04-02T15:46:37.857Z,7.94
2023-04-02T15:49:19.962Z,7.81
2023-04-02T15:52:01.665Z,7.81
2023-04-02T15:54:37.519Z,7.73
2023-04-02T15:57:45.638Z,7.79
2023-04-02T16:00:12.472Z,7.76
2023-04-02T16:02:53.725Z,7.85
2023-04-02T16:05:41.667Z,7.71
2023-04-02T16:08:39.296Z,7.72
2023-04-02T16:11:14.916Z,7.81
2023-04-02T16:13:44.075Z,7.81
2023-04-02T16:16:27.018Z,7.84
2023-04-02T16:18:59.412Z,7.75
2023-04-02T16:21:32.834Z,7.70
2023-04-02T16:23:59.450Z,7.59
2023-04-02T16:26:56.782Z,7.72
2023-04-02T16:29:37.993Z,7.66
2023-04-02T16:32:16.427Z,7.35
2023-04-02T16:35:15.271Z,7.17
2023-04-02T16:38:18.912Z,7.30
2023-04-02T16:41:09.788Z,7.25
2023-04-02T16:43:46.159Z,7.30
2023-04-02T16:46:31.712Z,6.90
2023-04-02T16:49:20.135Z,6.93
2023-04-02T16:51:49.496Z,6.82
2023-04-02T16:55:00.201Z,6.94
2023-04-02T16:57:49.319Z,6.83
2023-04-02T17:00:50.501Z,6.77
2023-04-02T17:03:40.005Z,6.67
2023-04-02T17:06:19.807Z,6.77
2023-04-02T17:08:57.235Z,6.78
2023-04-02T17:11:33.252Z,6.95
2023-04-02T17:14:38.490Z,6.77
2023-04-02T17:17:05.850Z,6.82
2023-04-02T17:19:32.699Z,6.72
2023-04-02T17:22:04.355Z,6.63
2023-04-02T17:24:33.614Z,6.75
2023-04-02T17:27:07.035Z,6.64
2023-04-02T17:29:39.274Z,6.67
2023-04-02T17:32:16.340Z,6.51
2023-04-02T17:34:42.744Z,6.48
2023-04-02T17:37:27.656Z,6.22
2023-04-02T17:40:00.508Z,6.39
2023-04-02T17:42:59.356Z,6.19
2023-04-02T17:45:28.929Z,6.27
2023-04-02T17:48:05.563Z,6.34
2023-04-02T17:50:38.309Z,6.23
2023-04-02T17:53:46.356Z,6.20
2023-04-02T17:56:21.903Z,6.16
2023-04-02T17:58:58.688Z,6.25
2023-04-02T18:01:34.241Z,6.06
2023-04-02T18:04:25.803Z,6.28
2023-04-02T18:07:04.362Z,6.13
2023-04-02T18:09:49.064Z,6.21
2023-04-02T18:12:24.513Z,6.13
2023-04-02T18:15:53.662Z,6.14
2023-04-02T18:18:48.461Z,6.23
2023-04-02T18:21:28.075Z,6.24
2023-04-02T18:24:10.150Z,6.21
2023-04-02T18:26:48.387Z,6.30
2023-04-02T18:29:30.759Z,6.33
2023-04-02T18:32:17.108Z,6.25
2023-04-02T18:34:57.444Z,6.24
2023-04-02T18:37:54.142Z,6.06
2023-04-02T18:40:46.750Z,6.32
2023-04-02T18:43:28.946Z,6.20
2023-04-02T18:46:32.350Z,6.21
2023-04-02T18:49:00.543Z,6.09
2023-04-02T18:51:34.159Z,6.11
2023-04-02T18:54:09.640Z,6.18
2023-04-02T18:56:40.451Z,5.98
2023-04-02T18:59:32.370Z,6.19
2023-04-02T19:02:03.150Z,6.12
2023-04-02T19:04:32.743Z,6.12
2023-04-02T19:07:06.988Z,6.02
2023-04-02T19:09:42.056Z,5.91
2023-04-02T19:12:19.734Z,5.93
2023-04-02T19:14:50.255Z,5.98
2023-04-02T19:17:20.602Z,6.09
2023-04-02T19:20:08.298Z,5.90
2023-04-02T19:22:59.290Z,5.97
2023-04-02T19:25:38.572Z,6.13
2023-04-02T19:28:16.895Z,6.08
2023-04-02T19:31:09.378Z,6.00
2023-04-02T19:33:48.062Z,6.06
2023-04-02T19:36:40.403Z,6.07
2023-04-02T19:39:07.987Z,6.10
2023-04-02T19:41:52.101Z,5.93
2023-04-02T19:44:19.437Z,5.94
2023-04-02T19:46:46.481Z,6.02
2023-04-02T19:49:22.904Z,5.99
2023-04-02T19:51:50.622Z,6.04
2023-04-02T19:54:17.678Z,6.07
2023-04-02T19:56:44.490Z,5.98
2023-04-02T20:01:43.346Z,6.07
2023-04-02T20:04:09.885Z,5.94
2023-04-02T20:06:36.363Z,5.99
2023-04-02T20:09:03.531Z,5.89
2023-04-02T20:11:30.738Z,5.93
2023-04-02T20:13:57.156Z,6.11
2023-04-02T20:16:23.623Z,6.10
2023-04-02T20:18:50.247Z,6.09
2023-04-02T20:21:17.190Z,6.16
2023-04-02T20:23:43.726Z,5.93
2023-04-02T20:26:10.394Z,6.20
2023-04-02T20:28:36.792Z,6.22
2023-04-02T20:31:17.265Z,6.34
2023-04-02T20:33:44.345Z,6.26
2023-04-02T20:36:13.407Z,6.19
2023-04-02T20:38:40.141Z,6.38
2023-04-02T20:41:08.062Z,6.44
2023-04-02T20:43:35.857Z,6.21
2023-04-02T20:46:05.406Z,6.07
2023-04-02T20:48:33.283Z,6.32
2023-04-02T20:51:01.772Z,6.41
2023-04-02T20:53:34.306Z,6.20
2023-04-02T20:56:05.693Z,6.42
2023-04-02T20:58:32.649Z,6.15
2023-04-02T21:01:06.906Z,6.09
2023-04-02T21:03:33.307Z,6.22
2023-04-02T21:05:59.779Z,6.33
2023-04-02T21:08:26.352Z,6.43
2023-04-02T21:10:52.796Z,6.32
2023-04-02T21:13:19.259Z,6.29
2023-04-02T21:15:45.712Z,6.56
2023-04-02T21:18:12.154Z,6.50
2023-04-02T21:20:38.495Z,6.31
2023-04-02T21:23:04.888Z,6.28
2023-04-02T21:25:31.272Z,6.04
2023-04-02T21:27:57.692Z,6.10
2023-04-02T21:30:24.049Z,6.04
2023-04-02T21:32:50.608Z,6.04
2023-04-02T21:35:17.116Z,6.23
2023-04-02T21:37:48.079Z,6.02
2023-04-02T21:40:14.556Z,5.99
2023-04-02T21:42:40.904Z,6.06
2023-04-02T21:45:07.669Z,6.07
2023-04-02T21:47:34.080Z,6.11
2023-04-02T21:50:00.472Z,6.28
2023-04-02T21:52:26.878Z,6.20
2023-04-02T21:54:53.254Z,6.32
2023-04-02T21:57:19.690Z,6.11
2023-04-02T21:59:46.126Z,6.33
2023-04-02T22:02:12.498Z,6.49
2023-04-02T22:04:40.766Z,6.44
2023-04-02T22:07:07.170Z,6.21
2023-04-02T22:09:33.544Z,6.49
2023-04-02T22:12:00.134Z,6.36
2023-04-02T22:14:27.605Z,6.12
2023-04-02T22:16:54.168Z,6.01
2023-04-02T22:19:20.945Z,6.30
2023-04-02T22:21:47.642Z,6.35
2023-04-02T22:24:16.301Z,6.45
2023-04-02T22:26:43.144Z,6.52
2023-04-02T22:29:09.625Z,6.39
2023-04-02T22:31:36.663Z,6.16
2023-04-02T22:34:04.808Z,5.94
2023-04-02T22:36:31.802Z,6.08
2023-04-02T22:38:59.376Z,6.16
2023-04-02T22:41:28.385Z,6.18
2023-04-02T22:43:56.710Z,6.24
2023-04-02T22:46:24.439Z,6.11
2023-04-02T22:48:50.938Z,6.26
2023-04-02T22:51:19.848Z,6.26
2023-04-02T22:53:47.327Z,5.96
2023-04-02T22:56:19.314Z,5.93
2023-04-02T22:58:46.213Z,6.16
2023-04-02T23:01:25.092Z,6.17
2023-04-02T23:03:54.132Z,6.15
2023-04-02T23:06:21.194Z,6.10
2023-04-02T23:08:47.719Z,6.14
2023-04-02T23:11:17.307Z,6.21
2023-04-02T23:13:44.483Z,6.17
2023-04-02T23:16:13.445Z,6.18
2023-04-02T23:18:42.010Z,6.12
2023-04-02T23:21:09.676Z,6.11
2023-04-02T23:23:37.621Z,6.14
2023-04-02T23:26:08.341Z,6.24
2023-04-02T23:28:36.004Z,6.14
2023-04-02T23:31:04.658Z,6.19
2023-04-02T23:33:31.349Z,6.14
2023-04-02T23:35:58.508Z,6.23
2023-04-02T23:38:25.966Z,6.07
2023-04-02T23:40:53.426Z,6.17
2023-04-02T23:43:19.848Z,6.12
2023-04-02T23:45:50.490Z,6.02
2023-04-02T23:48:17.453Z,6.29
2023-04-02T23:50:45.417Z,6.32
2023-04-02T23:53:13.095Z,6.11
2023-04-02T23:55:40.700Z,6.09
2023-04-02T23:58:07.353Z,6.09
